sensor_id;sensor_type;location;lat;lon;timestamp;P1;durP1;ratioP1;P2;durP2;ratioP2
41468;SDS011;27206;47.032;15.484;2022-08-01T00:00:04;3.20;;;2.33;;
41468;SDS011;27206;47.032;15.484;2022-08-01T00:02:31;4.20;;;3.10;;
41468;SDS011;27206;47.032;15.484;2022-08-01T00:04:57;3.90;;;2.97;;
41468;SDS011;27206;47.032;15.484;2022-08-01T00:07:23;4.10;;;3.05;;
41468;SDS011;27206;47.032;15.484;2022-08-01T00:09:48;6.22;;;3.08;;
41468;SDS011;27206;47.032;15.484;2022-08-01T00:12:14;4.28;;;2.92;;
41468;SDS011;27206;47.032;15.484;2022-08-01T00:14:40;4.40;;;3.03;;
41468;SDS011;27206;47.032;15.484;2022-08-01T00:17:05;4.80;;;2.90;;
41468;SDS011;27206;47.032;15.484;2022-08-01T00:19:31;7.88;;;3.00;;
41468;SDS011;27206;47.032;15.484;2022-08-01T00:21:57;3.97;;;2.95;;
41468;SDS011;27206;47.032;15.484;2022-08-01T00:24:23;4.53;;;3.00;;
41468;SDS011;27206;47.032;15.484;2022-08-01T00:26:48;4.00;;;3.13;;
41468;SDS011;27206;47.032;15.484;2022-08-01T00:29:14;5.95;;;2.70;;
41468;SDS011;27206;47.032;15.484;2022-08-01T00:31:40;5.47;;;3.00;;
41468;SDS011;27206;47.032;15.484;2022-08-01T00:34:05;3.80;;;2.90;;
41468;SDS011;27206;47.032;15.484;2022-08-01T00:36:31;5.68;;;3.00;;
41468;SDS011;27206;47.032;15.484;2022-08-01T00:38:57;4.40;;;3.20;;
41468;SDS011;27206;47.032;15.484;2022-08-01T00:41:22;4.45;;;3.00;;
41468;SDS011;27206;47.032;15.484;2022-08-01T00:43:48;4.00;;;3.00;;
41468;SDS011;27206;47.032;15.484;2022-08-01T00:46:13;3.97;;;2.90;;
41468;SDS011;27206;47.032;15.484;2022-08-01T00:48:39;4.15;;;2.90;;
41468;SDS011;27206;47.032;15.484;2022-08-01T00:51:05;5.40;;;3.33;;
41468;SDS011;27206;47.032;15.484;2022-08-01T00:53:32;4.70;;;3.30;;
41468;SDS011;27206;47.032;15.484;2022-08-01T00:55:58;4.03;;;3.20;;
41468;SDS011;27206;47.032;15.484;2022-08-01T00:58:24;3.97;;;3.38;;
41468;SDS011;27206;47.032;15.484;2022-08-01T01:00:50;3.75;;;3.08;;
41468;SDS011;27206;47.032;15.484;2022-08-01T01:03:16;4.63;;;3.15;;
41468;SDS011;27206;47.032;15.484;2022-08-01T01:05:45;4.13;;;2.92;;
41468;SDS011;27206;47.032;15.484;2022-08-01T01:08:22;4.30;;;3.22;;
41468;SDS011;27206;47.032;15.484;2022-08-01T01:10:54;3.75;;;2.88;;
41468;SDS011;27206;47.032;15.484;2022-08-01T01:15:55;6.50;;;3.40;;
41468;SDS011;27206;47.032;15.484;2022-08-01T01:29:42;3.42;;;2.88;;
41468;SDS011;27206;47.032;15.484;2022-08-01T01:32:14;6.22;;;3.38;;
41468;SDS011;27206;47.032;15.484;2022-08-01T01:34:45;5.45;;;3.50;;
41468;SDS011;27206;47.032;15.484;2022-08-01T01:37:14;5.50;;;3.78;;
41468;SDS011;27206;47.032;15.484;2022-08-01T01:39:43;4.45;;;3.38;;
41468;SDS011;27206;47.032;15.484;2022-08-01T01:42:11;4.20;;;3.40;;
41468;SDS011;27206;47.032;15.484;2022-08-01T01:44:38;4.93;;;3.67;;
41468;SDS011;27206;47.032;15.484;2022-08-01T01:47:05;6.35;;;3.42;;
41468;SDS011;27206;47.032;15.484;2022-08-01T01:49:32;4.55;;;3.33;;
41468;SDS011;27206;47.032;15.484;2022-08-01T01:51:58;6.93;;;3.50;;
41468;SDS011;27206;47.032;15.484;2022-08-01T01:54:30;4.85;;;3.42;;
41468;SDS011;27206;47.032;15.484;2022-08-01T01:57:00;4.93;;;3.63;;
41468;SDS011;27206;47.032;15.484;2022-08-01T01:59:29;4.28;;;3.22;;
41468;SDS011;27206;47.032;15.484;2022-08-01T02:01:58;5.90;;;3.47;;
41468;SDS011;27206;47.032;15.484;2022-08-01T02:04:27;4.72;;;3.20;;
41468;SDS011;27206;47.032;15.484;2022-08-01T02:06:53;4.45;;;3.15;;
41468;SDS011;27206;47.032;15.484;2022-08-01T02:09:21;4.68;;;3.75;;
41468;SDS011;27206;47.032;15.484;2022-08-01T02:11:48;4.28;;;2.95;;
41468;SDS011;27206;47.032;15.484;2022-08-01T02:14:15;5.30;;;3.40;;
41468;SDS011;27206;47.032;15.484;2022-08-01T02:16:44;4.75;;;3.65;;
41468;SDS011;27206;47.032;15.484;2022-08-01T02:19:12;5.03;;;3.30;;
41468;SDS011;27206;47.032;15.484;2022-08-01T02:27:00;7.07;;;3.75;;
41468;SDS011;27206;47.032;15.484;2022-08-01T02:29:33;4.43;;;3.33;;
41468;SDS011;27206;47.032;15.484;2022-08-01T02:32:10;4.10;;;3.15;;
41468;SDS011;27206;47.032;15.484;2022-08-01T02:34:40;4.40;;;3.40;;
41468;SDS011;27206;47.032;15.484;2022-08-01T02:37:07;4.35;;;3.45;;
41468;SDS011;27206;47.032;15.484;2022-08-01T02:39:35;5.43;;;3.90;;
41468;SDS011;27206;47.032;15.484;2022-08-01T02:42:02;5.85;;;3.72;;
41468;SDS011;27206;47.032;15.484;2022-08-01T02:44:31;4.30;;;3.40;;
41468;SDS011;27206;47.032;15.484;2022-08-01T02:47:01;4.78;;;3.80;;
41468;SDS011;27206;47.032;15.484;2022-08-01T02:49:39;5.20;;;3.65;;
41468;SDS011;27206;47.032;15.484;2022-08-01T02:52:12;5.97;;;3.63;;
41468;SDS011;27206;47.032;15.484;2022-08-01T02:54:39;4.55;;;3.55;;
41468;SDS011;27206;47.032;15.484;2022-08-01T02:57:07;4.18;;;3.50;;
41468;SDS011;27206;47.032;15.484;2022-08-01T02:59:33;5.18;;;3.10;;
41468;SDS011;27206;47.032;15.484;2022-08-01T03:02:02;3.90;;;3.35;;
41468;SDS011;27206;47.032;15.484;2022-08-01T03:04:30;6.82;;;3.33;;
41468;SDS011;27206;47.032;15.484;2022-08-01T03:06:58;5.18;;;3.42;;
41468;SDS011;27206;47.032;15.484;2022-08-01T03:09:26;4.32;;;3.55;;
41468;SDS011;27206;47.032;15.484;2022-08-01T03:11:53;5.03;;;3.28;;
41468;SDS011;27206;47.032;15.484;2022-08-01T03:14:23;4.85;;;3.35;;
41468;SDS011;27206;47.032;15.484;2022-08-01T03:16:51;4.93;;;3.38;;
41468;SDS011;27206;47.032;15.484;2022-08-01T03:19:18;5.30;;;4.05;;
41468;SDS011;27206;47.032;15.484;2022-08-01T03:21:45;4.00;;;3.22;;
41468;SDS011;27206;47.032;15.484;2022-08-01T03:24:13;5.60;;;3.70;;
41468;SDS011;27206;47.032;15.484;2022-08-01T03:26:40;6.32;;;4.25;;
41468;SDS011;27206;47.032;15.484;2022-08-01T03:29:11;5.22;;;3.47;;
41468;SDS011;27206;47.032;15.484;2022-08-01T03:31:40;4.97;;;3.60;;
41468;SDS011;27206;47.032;15.484;2022-08-01T03:34:09;4.82;;;3.80;;
41468;SDS011;27206;47.032;15.484;2022-08-01T03:36:38;4.82;;;3.63;;
41468;SDS011;27206;47.032;15.484;2022-08-01T03:39:10;5.40;;;3.63;;
41468;SDS011;27206;47.032;15.484;2022-08-01T03:41:38;6.68;;;5.03;;
41468;SDS011;27206;47.032;15.484;2022-08-01T03:44:08;8.00;;;5.50;;
41468;SDS011;27206;47.032;15.484;2022-08-01T03:46:45;8.05;;;5.40;;
41468;SDS011;27206;47.032;15.484;2022-08-01T03:49:22;10.60;;;6.00;;
41468;SDS011;27206;47.032;15.484;2022-08-01T03:51:51;7.95;;;4.82;;
41468;SDS011;27206;47.032;15.484;2022-08-01T03:54:23;7.55;;;4.97;;
41468;SDS011;27206;47.032;15.484;2022-08-01T03:56:53;9.63;;;4.70;;
41468;SDS011;27206;47.032;15.484;2022-08-01T03:59:19;7.30;;;4.40;;
41468;SDS011;27206;47.032;15.484;2022-08-01T04:01:49;6.57;;;4.50;;
41468;SDS011;27206;47.032;15.484;2022-08-01T04:04:15;6.03;;;4.25;;
41468;SDS011;27206;47.032;15.484;2022-08-01T04:06:40;5.47;;;4.20;;
41468;SDS011;27206;47.032;15.484;2022-08-01T04:09:08;7.13;;;4.00;;
41468;SDS011;27206;47.032;15.484;2022-08-01T04:11:36;7.28;;;4.70;;
41468;SDS011;27206;47.032;15.484;2022-08-01T04:14:02;6.10;;;4.15;;
41468;SDS011;27206;47.032;15.484;2022-08-01T04:16:31;5.57;;;4.00;;
41468;SDS011;27206;47.032;15.484;2022-08-01T04:19:02;5.65;;;4.38;;
41468;SDS011;27206;47.032;15.484;2022-08-01T04:21:28;5.95;;;4.00;;
41468;SDS011;27206;47.032;15.484;2022-08-01T04:23:59;5.35;;;4.10;;
41468;SDS011;27206;47.032;15.484;2022-08-01T04:26:29;7.63;;;3.42;;
41468;SDS011;27206;47.032;15.484;2022-08-01T04:29:00;5.93;;;3.63;;
41468;SDS011;27206;47.032;15.484;2022-08-01T04:31:29;4.70;;;3.65;;
41468;SDS011;27206;47.032;15.484;2022-08-01T04:33:56;8.10;;;4.22;;
41468;SDS011;27206;47.032;15.484;2022-08-01T04:36:23;7.05;;;3.85;;
41468;SDS011;27206;47.032;15.484;2022-08-01T04:38:50;6.07;;;3.88;;
41468;SDS011;27206;47.032;15.484;2022-08-01T04:41:20;5.15;;;3.30;;
41468;SDS011;27206;47.032;15.484;2022-08-01T04:43:48;5.88;;;3.60;;
41468;SDS011;27206;47.032;15.484;2022-08-01T04:46:16;5.22;;;3.53;;
41468;SDS011;27206;47.032;15.484;2022-08-01T04:48:42;5.53;;;3.72;;
41468;SDS011;27206;47.032;15.484;2022-08-01T04:51:13;5.40;;;3.80;;
41468;SDS011;27206;47.032;15.484;2022-08-01T04:53:46;6.80;;;3.78;;
41468;SDS011;27206;47.032;15.484;2022-08-01T04:56:12;4.90;;;3.80;;
41468;SDS011;27206;47.032;15.484;2022-08-01T04:58:39;6.60;;;3.80;;
41468;SDS011;27206;47.032;15.484;2022-08-01T05:01:06;7.50;;;4.00;;
41468;SDS011;27206;47.032;15.484;2022-08-01T05:03:31;4.72;;;4.00;;
41468;SDS011;27206;47.032;15.484;2022-08-01T05:05:58;6.45;;;4.28;;
41468;SDS011;27206;47.032;15.484;2022-08-01T05:08:23;7.15;;;3.92;;
41468;SDS011;27206;47.032;15.484;2022-08-01T05:10:49;5.25;;;3.75;;
41468;SDS011;27206;47.032;15.484;2022-08-01T05:13:15;6.53;;;3.63;;
41468;SDS011;27206;47.032;15.484;2022-08-01T05:15:41;4.53;;;3.65;;
41468;SDS011;27206;47.032;15.484;2022-08-01T05:18:06;7.22;;;4.03;;
41468;SDS011;27206;47.032;15.484;2022-08-01T05:20:33;9.38;;;4.05;;
41468;SDS011;27206;47.032;15.484;2022-08-01T05:22:58;4.47;;;3.63;;
41468;SDS011;27206;47.032;15.484;2022-08-01T05:25:24;5.78;;;3.85;;
41468;SDS011;27206;47.032;15.484;2022-08-01T05:27:50;5.97;;;4.43;;
41468;SDS011;27206;47.032;15.484;2022-08-01T05:30:15;6.05;;;4.00;;
41468;SDS011;27206;47.032;15.484;2022-08-01T05:32:41;5.85;;;3.70;;
41468;SDS011;27206;47.032;15.484;2022-08-01T05:35:07;7.45;;;3.95;;
41468;SDS011;27206;47.032;15.484;2022-08-01T05:37:33;5.70;;;3.95;;
41468;SDS011;27206;47.032;15.484;2022-08-01T05:39:59;6.60;;;3.50;;
41468;SDS011;27206;47.032;15.484;2022-08-01T05:42:25;5.43;;;3.50;;
41468;SDS011;27206;47.032;15.484;2022-08-01T05:44:51;4.43;;;3.53;;
41468;SDS011;27206;47.032;15.484;2022-08-01T05:47:17;5.75;;;3.58;;
41468;SDS011;27206;47.032;15.484;2022-08-01T05:49:43;5.90;;;4.00;;
41468;SDS011;27206;47.032;15.484;2022-08-01T05:52:10;10.63;;;3.78;;
41468;SDS011;27206;47.032;15.484;2022-08-01T05:54:36;5.35;;;3.40;;
41468;SDS011;27206;47.032;15.484;2022-08-01T05:57:02;4.38;;;3.25;;
41468;SDS011;27206;47.032;15.484;2022-08-01T05:59:28;4.57;;;3.30;;
41468;SDS011;27206;47.032;15.484;2022-08-01T06:01:54;5.20;;;3.22;;
41468;SDS011;27206;47.032;15.484;2022-08-01T06:04:20;4.57;;;3.55;;
41468;SDS011;27206;47.032;15.484;2022-08-01T06:06:45;4.47;;;3.20;;
41468;SDS011;27206;47.032;15.484;2022-08-01T06:09:11;4.85;;;3.40;;
41468;SDS011;27206;47.032;15.484;2022-08-01T06:11:37;5.43;;;3.72;;
41468;SDS011;27206;47.032;15.484;2022-08-01T06:14:03;5.28;;;3.60;;
41468;SDS011;27206;47.032;15.484;2022-08-01T06:16:29;6.95;;;3.53;;
41468;SDS011;27206;47.032;15.484;2022-08-01T06:18:55;5.18;;;3.70;;
41468;SDS011;27206;47.032;15.484;2022-08-01T06:21:20;5.30;;;3.70;;
41468;SDS011;27206;47.032;15.484;2022-08-01T06:23:46;7.05;;;3.78;;
41468;SDS011;27206;47.032;15.484;2022-08-01T06:26:12;5.22;;;3.40;;
41468;SDS011;27206;47.032;15.484;2022-08-01T06:28:38;7.93;;;4.10;;
41468;SDS011;27206;47.032;15.484;2022-08-01T06:31:04;5.53;;;3.60;;
41468;SDS011;27206;47.032;15.484;2022-08-01T06:33:30;5.47;;;3.50;;
41468;SDS011;27206;47.032;15.484;2022-08-01T06:35:55;6.03;;;3.90;;
41468;SDS011;27206;47.032;15.484;2022-08-01T06:38:21;4.60;;;3.47;;
41468;SDS011;27206;47.032;15.484;2022-08-01T06:40:47;5.72;;;3.80;;
41468;SDS011;27206;47.032;15.484;2022-08-01T06:43:13;5.35;;;3.67;;
41468;SDS011;27206;47.032;15.484;2022-08-01T06:45:40;5.82;;;4.30;;
41468;SDS011;27206;47.032;15.484;2022-08-01T06:48:06;8.63;;;4.28;;
41468;SDS011;27206;47.032;15.484;2022-08-01T06:50:33;7.88;;;3.97;;
41468;SDS011;27206;47.032;15.484;2022-08-01T06:53:00;7.93;;;3.75;;
41468;SDS011;27206;47.032;15.484;2022-08-01T06:55:26;7.13;;;4.30;;
41468;SDS011;27206;47.032;15.484;2022-08-01T06:57:52;7.05;;;3.88;;
41468;SDS011;27206;47.032;15.484;2022-08-01T07:00:19;6.45;;;3.50;;
41468;SDS011;27206;47.032;15.484;2022-08-01T07:02:50;6.95;;;3.65;;
41468;SDS011;27206;47.032;15.484;2022-08-01T07:05:20;6.18;;;3.78;;
41468;SDS011;27206;47.032;15.484;2022-08-01T07:07:46;5.93;;;3.78;;
41468;SDS011;27206;47.032;15.484;2022-08-01T07:10:12;24.55;;;5.63;;
41468;SDS011;27206;47.032;15.484;2022-08-01T07:12:38;9.15;;;4.47;;
41468;SDS011;27206;47.032;15.484;2022-08-01T07:15:05;6.40;;;3.88;;
41468;SDS011;27206;47.032;15.484;2022-08-01T07:17:32;6.60;;;3.75;;
41468;SDS011;27206;47.032;15.484;2022-08-01T07:20:01;8.48;;;3.88;;
41468;SDS011;27206;47.032;15.484;2022-08-01T07:22:27;7.70;;;4.30;;
41468;SDS011;27206;47.032;15.484;2022-08-01T07:24:53;6.45;;;4.10;;
41468;SDS011;27206;47.032;15.484;2022-08-01T07:27:18;8.68;;;3.72;;
41468;SDS011;27206;47.032;15.484;2022-08-01T07:29:44;5.70;;;3.75;;
41468;SDS011;27206;47.032;15.484;2022-08-01T07:32:09;8.18;;;3.70;;
41468;SDS011;27206;47.032;15.484;2022-08-01T07:34:35;7.75;;;3.67;;
41468;SDS011;27206;47.032;15.484;2022-08-01T07:37:01;6.93;;;3.17;;
41468;SDS011;27206;47.032;15.484;2022-08-01T07:39:27;6.28;;;3.45;;
41468;SDS011;27206;47.032;15.484;2022-08-01T07:41:52;5.25;;;3.25;;
41468;SDS011;27206;47.032;15.484;2022-08-01T07:44:21;8.18;;;3.65;;
41468;SDS011;27206;47.032;15.484;2022-08-01T07:46:46;7.03;;;3.50;;
41468;SDS011;27206;47.032;15.484;2022-08-01T07:49:12;7.53;;;3.50;;
41468;SDS011;27206;47.032;15.484;2022-08-01T07:51:38;7.13;;;3.95;;
41468;SDS011;27206;47.032;15.484;2022-08-01T07:54:03;7.97;;;3.97;;
41468;SDS011;27206;47.032;15.484;2022-08-01T07:56:29;5.97;;;4.15;;
41468;SDS011;27206;47.032;15.484;2022-08-01T07:58:55;5.80;;;3.90;;
41468;SDS011;27206;47.032;15.484;2022-08-01T08:01:20;6.32;;;3.90;;
41468;SDS011;27206;47.032;15.484;2022-08-01T08:03:46;9.25;;;4.68;;
41468;SDS011;27206;47.032;15.484;2022-08-01T08:06:12;7.40;;;4.45;;
41468;SDS011;27206;47.032;15.484;2022-08-01T08:08:38;10.85;;;4.93;;
41468;SDS011;27206;47.032;15.484;2022-08-01T08:11:04;7.38;;;4.43;;
41468;SDS011;27206;47.032;15.484;2022-08-01T08:13:29;6.85;;;4.15;;
41468;SDS011;27206;47.032;15.484;2022-08-01T08:15:55;7.88;;;4.47;;
41468;SDS011;27206;47.032;15.484;2022-08-01T08:18:20;9.02;;;4.63;;
41468;SDS011;27206;47.032;15.484;2022-08-01T08:20:46;8.00;;;4.22;;
41468;SDS011;27206;47.032;15.484;2022-08-01T08:23:12;6.35;;;4.00;;
41468;SDS011;27206;47.032;15.484;2022-08-01T08:25:56;9.30;;;3.80;;
41468;SDS011;27206;47.032;15.484;2022-08-01T08:28:22;6.88;;;3.75;;
41468;SDS011;27206;47.032;15.484;2022-08-01T08:30:47;6.18;;;3.78;;
41468;SDS011;27206;47.032;15.484;2022-08-01T08:33:13;6.57;;;3.80;;
41468;SDS011;27206;47.032;15.484;2022-08-01T08:35:39;5.82;;;4.07;;
41468;SDS011;27206;47.032;15.484;2022-08-01T08:38:06;7.15;;;3.55;;
41468;SDS011;27206;47.032;15.484;2022-08-01T08:40:32;7.03;;;3.80;;
41468;SDS011;27206;47.032;15.484;2022-08-01T08:43:01;5.25;;;3.53;;
41468;SDS011;27206;47.032;15.484;2022-08-01T08:45:30;6.45;;;3.92;;
41468;SDS011;27206;47.032;15.484;2022-08-01T08:47:57;4.47;;;3.20;;
41468;SDS011;27206;47.032;15.484;2022-08-01T08:50:23;5.90;;;3.30;;
41468;SDS011;27206;47.032;15.484;2022-08-01T08:52:52;5.75;;;3.33;;
41468;SDS011;27206;47.032;15.484;2022-08-01T08:55:19;5.13;;;3.20;;
41468;SDS011;27206;47.032;15.484;2022-08-01T08:57:45;5.22;;;3.28;;
41468;SDS011;27206;47.032;15.484;2022-08-01T09:00:13;6.40;;;3.58;;
41468;SDS011;27206;47.032;15.484;2022-08-01T09:02:40;6.13;;;3.28;;
41468;SDS011;27206;47.032;15.484;2022-08-01T09:05:08;5.63;;;3.70;;
41468;SDS011;27206;47.032;15.484;2022-08-01T09:07:34;5.55;;;3.08;;
41468;SDS011;27206;47.032;15.484;2022-08-01T09:10:00;5.60;;;3.55;;
41468;SDS011;27206;47.032;15.484;2022-08-01T09:12:25;4.95;;;3.03;;
41468;SDS011;27206;47.032;15.484;2022-08-01T09:14:51;4.88;;;2.88;;
41468;SDS011;27206;47.032;15.484;2022-08-01T09:17:18;4.90;;;3.28;;
41468;SDS011;27206;47.032;15.484;2022-08-01T09:19:55;5.72;;;2.90;;
41468;SDS011;27206;47.032;15.484;2022-08-01T09:22:22;7.60;;;3.05;;
41468;SDS011;27206;47.032;15.484;2022-08-01T09:27:23;5.40;;;2.92;;
41468;SDS011;27206;47.032;15.484;2022-08-01T09:29:51;3.88;;;2.30;;
41468;SDS011;27206;47.032;15.484;2022-08-01T09:32:18;5.30;;;2.38;;
41468;SDS011;27206;47.032;15.484;2022-08-01T09:34:44;7.60;;;2.30;;
41468;SDS011;27206;47.032;15.484;2022-08-01T09:37:11;3.03;;;1.98;;
41468;SDS011;27206;47.032;15.484;2022-08-01T09:39:39;4.15;;;2.00;;
41468;SDS011;27206;47.032;15.484;2022-08-01T09:42:21;7.07;;;2.88;;
41468;SDS011;27206;47.032;15.484;2022-08-01T09:44:49;7.82;;;4.30;;
41468;SDS011;27206;47.032;15.484;2022-08-01T09:47:16;4.20;;;2.63;;
41468;SDS011;27206;47.032;15.484;2022-08-01T09:49:43;3.03;;;2.00;;
41468;SDS011;27206;47.032;15.484;2022-08-01T09:52:17;3.13;;;1.85;;
41468;SDS011;27206;47.032;15.484;2022-08-01T09:55:00;2.97;;;1.70;;
41468;SDS011;27206;47.032;15.484;2022-08-01T09:57:28;4.22;;;2.00;;
41468;SDS011;27206;47.032;15.484;2022-08-01T09:59:55;3.05;;;1.48;;
41468;SDS011;27206;47.032;15.484;2022-08-01T10:02:27;3.15;;;1.75;;
41468;SDS011;27206;47.032;15.484;2022-08-01T10:04:57;2.47;;;1.80;;
41468;SDS011;27206;47.032;15.484;2022-08-01T10:07:24;3.10;;;1.70;;
41468;SDS011;27206;47.032;15.484;2022-08-01T10:09:49;3.35;;;1.83;;
41468;SDS011;27206;47.032;15.484;2022-08-01T10:12:17;3.17;;;1.80;;
41468;SDS011;27206;47.032;15.484;2022-08-01T10:14:44;3.63;;;1.52;;
41468;SDS011;27206;47.032;15.484;2022-08-01T10:17:12;3.33;;;1.67;;
41468;SDS011;27206;47.032;15.484;2022-08-01T10:19:40;4.40;;;1.85;;
41468;SDS011;27206;47.032;15.484;2022-08-01T10:22:10;4.65;;;2.03;;
41468;SDS011;27206;47.032;15.484;2022-08-01T10:24:42;3.53;;;2.15;;
41468;SDS011;27206;47.032;15.484;2022-08-01T10:27:11;2.20;;;1.67;;
41468;SDS011;27206;47.032;15.484;2022-08-01T10:32:30;3.38;;;2.47;;
41468;SDS011;27206;47.032;15.484;2022-08-01T10:34:56;3.40;;;1.95;;
41468;SDS011;27206;47.032;15.484;2022-08-01T10:37:22;2.47;;;1.60;;
41468;SDS011;27206;47.032;15.484;2022-08-01T10:39:48;3.53;;;1.88;;
41468;SDS011;27206;47.032;15.484;2022-08-01T10:42:16;3.92;;;2.00;;
41468;SDS011;27206;47.032;15.484;2022-08-01T10:44:43;4.65;;;2.00;;
41468;SDS011;27206;47.032;15.484;2022-08-01T10:47:12;4.45;;;1.92;;
41468;SDS011;27206;47.032;15.484;2022-08-01T10:49:43;4.05;;;1.80;;
41468;SDS011;27206;47.032;15.484;2022-08-01T10:52:15;3.80;;;2.10;;
41468;SDS011;27206;47.032;15.484;2022-08-01T10:54:42;2.92;;;1.85;;
41468;SDS011;27206;47.032;15.484;2022-08-01T10:57:08;5.00;;;1.73;;
41468;SDS011;27206;47.032;15.484;2022-08-01T10:59:35;2.65;;;1.80;;
41468;SDS011;27206;47.032;15.484;2022-08-01T11:02:11;3.83;;;1.63;;
41468;SDS011;27206;47.032;15.484;2022-08-01T11:05:03;3.05;;;1.80;;
41468;SDS011;27206;47.032;15.484;2022-08-01T11:07:45;2.75;;;1.48;;
41468;SDS011;27206;47.032;15.484;2022-08-01T11:10:19;3.72;;;1.60;;
41468;SDS011;27206;47.032;15.484;2022-08-01T11:12:50;2.42;;;1.60;;
41468;SDS011;27206;47.032;15.484;2022-08-01T11:15:16;3.63;;;1.75;;
41468;SDS011;27206;47.032;15.484;2022-08-01T11:17:49;3.42;;;1.80;;
41468;SDS011;27206;47.032;15.484;2022-08-01T11:20:17;3.17;;;1.75;;
41468;SDS011;27206;47.032;15.484;2022-08-01T11:33:13;4.28;;;2.97;;
41468;SDS011;27206;47.032;15.484;2022-08-01T11:38:38;2.17;;;1.42;;
41468;SDS011;27206;47.032;15.484;2022-08-01T11:41:21;2.30;;;1.55;;
41468;SDS011;27206;47.032;15.484;2022-08-01T11:43:55;2.85;;;1.33;;
41468;SDS011;27206;47.032;15.484;2022-08-01T11:54:53;2.95;;;1.30;;
41468;SDS011;27206;47.032;15.484;2022-08-01T11:57:21;4.28;;;1.35;;
41468;SDS011;27206;47.032;15.484;2022-08-01T11:59:52;4.07;;;2.70;;
41468;SDS011;27206;47.032;15.484;2022-08-01T12:04:59;1.60;;;1.05;;
41468;SDS011;27206;47.032;15.484;2022-08-01T12:07:26;4.05;;;1.27;;
41468;SDS011;27206;47.032;15.484;2022-08-01T12:10:05;2.03;;;1.27;;
41468;SDS011;27206;47.032;15.484;2022-08-01T12:12:33;1.80;;;1.15;;
41468;SDS011;27206;47.032;15.484;2022-08-01T12:15:00;3.13;;;1.30;;
41468;SDS011;27206;47.032;15.484;2022-08-01T12:17:31;4.18;;;1.30;;
41468;SDS011;27206;47.032;15.484;2022-08-01T12:20:05;1.42;;;0.90;;
41468;SDS011;27206;47.032;15.484;2022-08-01T12:22:33;1.90;;;1.20;;
41468;SDS011;27206;47.032;15.484;2022-08-01T12:25:09;2.08;;;1.27;;
41468;SDS011;27206;47.032;15.484;2022-08-01T12:27:37;1.95;;;1.23;;
41468;SDS011;27206;47.032;15.484;2022-08-01T12:30:04;1.67;;;1.00;;
41468;SDS011;27206;47.032;15.484;2022-08-01T12:32:34;1.55;;;0.80;;
41468;SDS011;27206;47.032;15.484;2022-08-01T12:35:07;1.73;;;0.82;;
41468;SDS011;27206;47.032;15.484;2022-08-01T12:37:39;2.00;;;0.90;;
41468;SDS011;27206;47.032;15.484;2022-08-01T12:40:09;1.33;;;0.70;;
41468;SDS011;27206;47.032;15.484;2022-08-01T12:42:39;3.90;;;2.53;;
41468;SDS011;27206;47.032;15.484;2022-08-01T12:45:09;1.00;;;0.70;;
41468;SDS011;27206;47.032;15.484;2022-08-01T12:47:38;1.90;;;0.88;;
41468;SDS011;27206;47.032;15.484;2022-08-01T12:50:15;2.08;;;0.90;;
41468;SDS011;27206;47.032;15.484;2022-08-01T12:52:43;1.08;;;0.73;;
41468;SDS011;27206;47.032;15.484;2022-08-01T12:55:11;2.40;;;0.80;;
41468;SDS011;27206;47.032;15.484;2022-08-01T12:57:37;2.00;;;0.82;;
41468;SDS011;27206;47.032;15.484;2022-08-01T13:00:19;3.28;;;0.95;;
41468;SDS011;27206;47.032;15.484;2022-08-01T13:02:49;3.05;;;0.80;;
41468;SDS011;27206;47.032;15.484;2022-08-01T13:05:26;2.42;;;0.80;;
41468;SDS011;27206;47.032;15.484;2022-08-01T13:07:52;2.13;;;0.80;;
41468;SDS011;27206;47.032;15.484;2022-08-01T13:10:28;2.15;;;0.65;;
41468;SDS011;27206;47.032;15.484;2022-08-01T13:12:55;1.90;;;0.90;;
41468;SDS011;27206;47.032;15.484;2022-08-01T13:15:23;1.77;;;0.90;;
41468;SDS011;27206;47.032;15.484;2022-08-01T13:17:52;0.93;;;0.68;;
41468;SDS011;27206;47.032;15.484;2022-08-01T13:20:25;2.83;;;0.90;;
41468;SDS011;27206;47.032;15.484;2022-08-01T13:22:51;1.15;;;0.70;;
41468;SDS011;27206;47.032;15.484;2022-08-01T13:25:17;2.13;;;0.90;;
41468;SDS011;27206;47.032;15.484;2022-08-01T13:27:43;0.80;;;0.60;;
41468;SDS011;27206;47.032;15.484;2022-08-01T13:30:18;3.95;;;2.30;;
41468;SDS011;27206;47.032;15.484;2022-08-01T13:33:00;1.65;;;0.70;;
41468;SDS011;27206;47.032;15.484;2022-08-01T13:35:26;1.45;;;0.68;;
41468;SDS011;27206;47.032;15.484;2022-08-01T13:37:52;1.65;;;0.80;;
41468;SDS011;27206;47.032;15.484;2022-08-01T13:40:25;1.65;;;0.73;;
41468;SDS011;27206;47.032;15.484;2022-08-01T13:42:52;1.08;;;0.75;;
41468;SDS011;27206;47.032;15.484;2022-08-01T13:45:19;1.13;;;0.70;;
41468;SDS011;27206;47.032;15.484;2022-08-01T13:47:45;1.90;;;0.90;;
41468;SDS011;27206;47.032;15.484;2022-08-01T13:50:11;1.98;;;0.90;;
41468;SDS011;27206;47.032;15.484;2022-08-01T13:52:36;1.13;;;0.63;;
41468;SDS011;27206;47.032;15.484;2022-08-01T13:55:02;1.83;;;0.70;;
41468;SDS011;27206;47.032;15.484;2022-08-01T13:57:28;2.20;;;0.90;;
41468;SDS011;27206;47.032;15.484;2022-08-01T13:59:54;2.63;;;0.70;;
41468;SDS011;27206;47.032;15.484;2022-08-01T14:02:20;1.60;;;0.77;;
41468;SDS011;27206;47.032;15.484;2022-08-01T14:04:45;1.70;;;1.00;;
41468;SDS011;27206;47.032;15.484;2022-08-01T14:07:12;2.30;;;0.95;;
41468;SDS011;27206;47.032;15.484;2022-08-01T14:09:38;2.35;;;0.85;;
41468;SDS011;27206;47.032;15.484;2022-08-01T14:12:04;3.30;;;0.80;;
41468;SDS011;27206;47.032;15.484;2022-08-01T14:14:29;2.08;;;0.70;;
41468;SDS011;27206;47.032;15.484;2022-08-01T14:16:55;3.10;;;0.88;;
41468;SDS011;27206;47.032;15.484;2022-08-01T14:19:21;2.88;;;1.00;;
41468;SDS011;27206;47.032;15.484;2022-08-01T14:21:47;1.52;;;0.80;;
41468;SDS011;27206;47.032;15.484;2022-08-01T14:24:12;1.80;;;0.70;;
41468;SDS011;27206;47.032;15.484;2022-08-01T14:26:38;2.60;;;1.25;;
41468;SDS011;27206;47.032;15.484;2022-08-01T14:29:04;1.45;;;0.70;;
41468;SDS011;27206;47.032;15.484;2022-08-01T14:31:29;1.40;;;0.77;;
41468;SDS011;27206;47.032;15.484;2022-08-01T14:33:55;0.95;;;0.70;;
41468;SDS011;27206;47.032;15.484;2022-08-01T14:36:21;2.20;;;0.75;;
41468;SDS011;27206;47.032;15.484;2022-08-01T14:38:46;1.83;;;0.85;;
41468;SDS011;27206;47.032;15.484;2022-08-01T14:41:13;1.67;;;0.70;;
41468;SDS011;27206;47.032;15.484;2022-08-01T14:43:39;2.20;;;0.90;;
41468;SDS011;27206;47.032;15.484;2022-08-01T14:46:05;2.90;;;0.80;;
41468;SDS011;27206;47.032;15.484;2022-08-01T14:48:30;2.47;;;1.20;;
41468;SDS011;27206;47.032;15.484;2022-08-01T14:50:57;2.03;;;0.77;;
41468;SDS011;27206;47.032;15.484;2022-08-01T14:53:24;2.75;;;0.82;;
41468;SDS011;27206;47.032;15.484;2022-08-01T14:55:49;2.58;;;1.20;;
41468;SDS011;27206;47.032;15.484;2022-08-01T14:58:15;1.48;;;0.90;;
41468;SDS011;27206;47.032;15.484;2022-08-01T15:00:41;2.05;;;1.00;;
41468;SDS011;27206;47.032;15.484;2022-08-01T15:03:06;0.93;;;0.70;;
41468;SDS011;27206;47.032;15.484;2022-08-01T15:05:32;5.07;;;1.30;;
41468;SDS011;27206;47.032;15.484;2022-08-01T15:07:58;2.60;;;1.08;;
41468;SDS011;27206;47.032;15.484;2022-08-01T15:10:24;1.80;;;1.00;;
41468;SDS011;27206;47.032;15.484;2022-08-01T15:12:49;2.95;;;0.98;;
41468;SDS011;27206;47.032;15.484;2022-08-01T15:15:15;2.78;;;1.10;;
41468;SDS011;27206;47.032;15.484;2022-08-01T15:17:41;3.58;;;1.27;;
41468;SDS011;27206;47.032;15.484;2022-08-01T15:20:06;2.63;;;1.27;;
41468;SDS011;27206;47.032;15.484;2022-08-01T15:22:32;1.88;;;1.20;;
41468;SDS011;27206;47.032;15.484;2022-08-01T15:24:59;4.93;;;1.20;;